createdAt,value
2023-01-30T00:00:19.594Z,13.63
2023-01-30T00:01:44.139Z,13.23
2023-01-30T00:03:06.556Z,10.20
2023-01-30T00:04:29.936Z,8.45
2023-01-30T00:05:54.220Z,8.40
2023-01-30T00:07:20.068Z,10.82
2023-01-30T00:08:42.469Z,8.50
2023-01-30T00:10:06.492Z,14.35
2023-01-30T00:11:30.182Z,11.32
2023-01-30T00:12:53.203Z,10.77
2023-01-30T00:14:17.000Z,13.02
2023-01-30T00:15:39.437Z,10.18
2023-01-30T00:17:02.880Z,10.13
2023-01-30T00:18:26.356Z,8.95
2023-01-30T00:19:49.810Z,10.20
2023-01-30T00:21:15.706Z,13.82
2023-01-30T00:22:42.359Z,11.63
2023-01-30T00:24:08.225Z,12.90
2023-01-30T00:25:31.629Z,11.30
2023-01-30T00:26:55.265Z,12.32
2023-01-30T00:28:18.758Z,11.07
2023-01-30T00:29:43.195Z,13.18
2023-01-30T00:31:08.017Z,14.25
2023-01-30T00:32:31.530Z,15.65
2023-01-30T00:33:55.006Z,15.15
2023-01-30T00:35:17.453Z,17.13
2023-01-30T00:36:42.279Z,16.85
2023-01-30T00:38:04.758Z,10.90
2023-01-30T00:39:28.284Z,10.77
2023-01-30T00:40:51.083Z,10.82
2023-01-30T00:42:31.892Z,14.48
2023-01-30T00:44:12.968Z,12.88
2023-01-30T00:45:56.690Z,10.75
2023-01-30T00:47:20.159Z,12.63
2023-01-30T00:48:42.654Z,11.88
2023-01-30T00:50:06.934Z,13.73
2023-01-30T00:51:29.337Z,12.20
2023-01-30T00:52:54.125Z,13.38
2023-01-30T00:54:18.318Z,12.30
2023-01-30T00:55:40.965Z,11.75
2023-01-30T00:57:04.481Z,11.60
2023-01-30T00:58:26.976Z,10.60
2023-01-30T00:59:50.547Z,11.10
2023-01-30T01:01:14.171Z,14.48
2023-01-30T01:02:37.723Z,13.23
2023-01-30T01:04:00.157Z,14.35
2023-01-30T01:05:23.601Z,13.52
2023-01-30T01:06:47.102Z,14.00
2023-01-30T01:08:12.568Z,13.45
2023-01-30T01:09:36.095Z,13.98
2023-01-30T01:10:58.518Z,13.00
2023-01-30T01:12:22.113Z,12.85
2023-01-30T01:13:45.663Z,18.30
2023-01-30T01:15:09.811Z,13.35
2023-01-30T01:16:35.312Z,9.95
2023-01-30T01:17:58.735Z,14.55
2023-01-30T01:19:21.263Z,12.95
2023-01-30T01:20:44.730Z,13.57
2023-01-30T01:22:08.203Z,11.73
2023-01-30T01:23:32.063Z,14.63
2023-01-30T01:24:55.455Z,11.38
2023-01-30T01:26:18.938Z,11.77
2023-01-30T01:27:41.364Z,10.25
2023-01-30T01:29:05.020Z,14.57
2023-01-30T01:30:27.527Z,12.88
2023-01-30T01:31:50.950Z,11.18
2023-01-30T01:33:14.333Z,12.27
2023-01-30T01:34:38.046Z,11.65
2023-01-30T01:36:00.473Z,12.98
2023-01-30T01:37:24.033Z,13.23
2023-01-30T01:38:47.785Z,11.85
2023-01-30T01:40:35.879Z,11.35
2023-01-30T01:41:59.236Z,10.30
2023-01-30T01:43:26.091Z,14.05
2023-01-30T01:45:18.091Z,14.40
2023-01-30T01:46:45.790Z,14.50
2023-01-30T01:48:13.478Z,10.77
2023-01-30T01:49:39.694Z,11.77
2023-01-30T01:51:04.861Z,12.57
2023-01-30T01:52:28.747Z,10.05
2023-01-30T01:53:57.579Z,12.77
2023-01-30T01:55:20.524Z,13.30
2023-01-30T01:56:47.109Z,13.93
2023-01-30T01:58:11.680Z,11.63
2023-01-30T01:59:38.397Z,11.75
2023-01-30T02:01:02.058Z,15.27
2023-01-30T02:02:25.755Z,15.05
2023-01-30T02:03:53.435Z,10.13
2023-01-30T02:05:17.849Z,15.68
2023-01-30T02:06:44.051Z,12.27
2023-01-30T02:08:08.389Z,11.85
2023-01-30T02:09:36.015Z,11.75
2023-01-30T02:11:04.910Z,13.57
2023-01-30T02:12:28.672Z,11.10
2023-01-30T02:13:52.580Z,13.68
2023-01-30T02:15:15.522Z,12.30
2023-01-30T02:16:39.403Z,13.85
2023-01-30T02:18:01.836Z,10.35
2023-01-30T02:19:36.259Z,14.27
2023-01-30T02:21:14.046Z,11.35
2023-01-30T02:23:19.381Z,16.95
2023-01-30T02:25:12.087Z,19.02
2023-01-30T02:27:06.798Z,16.05
2023-01-30T02:29:11.423Z,13.48
2023-01-30T02:31:10.667Z,9.68
2023-01-30T02:32:40.839Z,15.55
2023-01-30T02:34:20.464Z,14.10
2023-01-30T02:35:50.056Z,11.57
2023-01-30T02:37:21.350Z,16.20
2023-01-30T02:38:56.290Z,12.68
2023-01-30T02:40:36.968Z,11.98
2023-01-30T02:42:05.260Z,12.35
2023-01-30T02:43:33.939Z,15.32
2023-01-30T02:45:02.430Z,12.27
2023-01-30T02:46:27.063Z,9.38
2023-01-30T02:47:57.099Z,11.40
2023-01-30T02:49:25.141Z,15.90
2023-01-30T02:50:52.183Z,12.63
2023-01-30T02:52:17.307Z,15.63
2023-01-30T02:53:41.709Z,13.40
2023-01-30T02:55:18.207Z,12.77
2023-01-30T02:56:47.032Z,16.40
2023-01-30T02:58:10.910Z,17.20
2023-01-30T02:59:37.725Z,14.80
2023-01-30T03:01:17.470Z,13.68
2023-01-30T03:03:11.161Z,16.38
2023-01-30T03:05:00.526Z,13.15
2023-01-30T03:06:35.093Z,11.80
2023-01-30T03:08:05.214Z,12.02
2023-01-30T03:09:36.212Z,14.98
2023-01-30T03:11:02.213Z,10.63
2023-01-30T03:12:34.014Z,13.45
2023-01-30T03:14:02.362Z,13.75
2023-01-30T03:15:31.648Z,13.73
2023-01-30T03:16:57.642Z,15.35
2023-01-30T03:18:22.679Z,17.13
2023-01-30T03:19:45.384Z,12.88
2023-01-30T03:21:09.977Z,15.00
2023-01-30T03:22:33.377Z,14.60
2023-01-30T03:23:56.884Z,17.10
2023-01-30T03:25:21.834Z,13.82
2023-01-30T03:26:55.270Z,12.63
2023-01-30T03:28:20.754Z,15.35
2023-01-30T03:29:44.262Z,9.65
2023-01-30T03:31:07.350Z,20.80
2023-01-30T03:32:30.977Z,15.07
2023-01-30T03:33:55.753Z,16.83
2023-01-30T03:35:19.547Z,15.02
2023-01-30T03:36:43.234Z,17.75
2023-01-30T03:38:06.047Z,14.48
2023-01-30T03:39:29.582Z,14.43
2023-01-30T03:40:53.095Z,15.48
2023-01-30T03:42:16.588Z,13.43
2023-01-30T03:43:38.999Z,13.07
2023-01-30T03:45:02.375Z,12.88
2023-01-30T03:46:25.990Z,13.77
2023-01-30T03:47:48.530Z,16.30
2023-01-30T03:49:13.395Z,14.30
2023-01-30T03:50:36.051Z,11.90
2023-01-30T03:51:59.433Z,12.85
2023-01-30T03:53:22.865Z,10.90
2023-01-30T03:54:46.323Z,15.95
2023-01-30T03:56:09.808Z,14.40
2023-01-30T03:57:32.330Z,14.98
2023-01-30T03:58:55.835Z,13.55
2023-01-30T04:00:19.121Z,13.77
2023-01-30T04:01:42.494Z,10.50
2023-01-30T04:03:04.910Z,15.98
2023-01-30T04:04:29.703Z,12.40
2023-01-30T04:05:52.928Z,14.18
2023-01-30T04:07:16.300Z,11.77
2023-01-30T04:08:38.778Z,14.40
2023-01-30T04:10:02.205Z,13.80
2023-01-30T04:11:25.758Z,13.90
2023-01-30T04:12:49.611Z,11.02
2023-01-30T04:14:12.155Z,14.70
2023-01-30T04:15:35.559Z,13.18
2023-01-30T04:16:58.556Z,12.85
2023-01-30T04:18:21.993Z,15.93
2023-01-30T04:19:46.940Z,15.57
2023-01-30T04:21:10.548Z,14.40
2023-01-30T04:22:36.511Z,15.45
2023-01-30T04:24:01.964Z,16.08
2023-01-30T04:25:24.399Z,15.25
2023-01-30T04:26:47.864Z,16.48
2023-01-30T04:28:10.327Z,13.85
2023-01-30T04:29:33.806Z,15.57
2023-01-30T04:30:56.391Z,11.90
2023-01-30T04:32:19.984Z,13.73
2023-01-30T04:33:43.443Z,11.85
2023-01-30T04:35:08.956Z,14.98
2023-01-30T04:36:32.378Z,13.65
2023-01-30T04:37:55.775Z,12.38
2023-01-30T04:39:21.186Z,12.30
2023-01-30T04:40:50.073Z,10.65
2023-01-30T04:42:13.464Z,13.70
2023-01-30T04:43:36.988Z,12.20
2023-01-30T04:44:59.426Z,12.63
2023-01-30T04:46:22.939Z,11.23
2023-01-30T04:47:46.473Z,9.55
2023-01-30T04:49:11.407Z,10.70
2023-01-30T04:50:39.737Z,13.73
2023-01-30T04:52:03.359Z,13.35
2023-01-30T04:53:25.923Z,14.07
2023-01-30T04:54:49.365Z,11.68
2023-01-30T04:56:12.928Z,14.20
2023-01-30T04:57:35.474Z,13.45
2023-01-30T04:58:58.936Z,10.85
2023-01-30T05:00:22.568Z,9.43
2023-01-30T05:01:46.079Z,12.05
2023-01-30T05:03:08.590Z,14.20
2023-01-30T05:04:32.136Z,12.80
2023-01-30T05:05:55.894Z,12.25
2023-01-30T05:07:19.354Z,11.90
2023-01-30T05:08:41.770Z,11.02
2023-01-30T05:10:05.851Z,19.00
2023-01-30T05:11:30.860Z,9.73
2023-01-30T05:12:54.275Z,12.18
2023-01-30T05:14:19.626Z,19.63
2023-01-30T05:15:42.102Z,11.10
2023-01-30T05:17:05.538Z,13.85
2023-01-30T05:18:28.151Z,16.08
2023-01-30T05:19:51.545Z,13.52
2023-01-30T05:21:16.833Z,14.75
2023-01-30T05:22:40.301Z,13.45
2023-01-30T05:24:03.776Z,10.95
2023-01-30T05:25:28.819Z,12.68
2023-01-30T05:26:52.265Z,13.63
2023-01-30T05:28:15.723Z,12.05
2023-01-30T05:29:39.191Z,14.25
2023-01-30T05:31:03.350Z,14.07
2023-01-30T05:32:27.296Z,12.75
2023-01-30T05:33:52.318Z,14.38
2023-01-30T05:35:16.532Z,12.70
2023-01-30T05:36:40.695Z,12.38
2023-01-30T05:38:04.128Z,16.27
2023-01-30T05:39:27.548Z,16.95
2023-01-30T05:41:00.169Z,14.23
2023-01-30T05:42:23.665Z,13.27
2023-01-30T05:43:50.919Z,14.98
2023-01-30T05:45:14.365Z,14.60
2023-01-30T05:46:37.870Z,14.57
2023-01-30T05:48:01.740Z,11.65
2023-01-30T05:49:25.390Z,13.90
2023-01-30T05:50:49.141Z,12.00
2023-01-30T05:52:13.943Z,10.23
2023-01-30T05:53:37.397Z,14.93
2023-01-30T05:55:00.823Z,18.17
2023-01-30T05:56:24.699Z,13.27
2023-01-30T05:57:47.222Z,14.55
2023-01-30T05:59:13.248Z,16.17
2023-01-30T06:00:35.784Z,15.93
2023-01-30T06:01:59.170Z,24.13
2023-01-30T06:03:21.697Z,14.60
2023-01-30T06:04:45.406Z,14.65
2023-01-30T06:06:09.348Z,12.75
2023-01-30T06:07:34.168Z,11.85
2023-01-30T06:08:58.212Z,16.48
2023-01-30T06:10:21.848Z,12.23
2023-01-30T06:11:45.373Z,18.48
2023-01-30T06:13:10.943Z,9.82
2023-01-30T06:14:35.373Z,14.10
2023-01-30T06:15:58.844Z,13.50
2023-01-30T06:17:25.251Z,12.10
2023-01-30T06:18:49.079Z,14.80
2023-01-30T06:20:14.800Z,15.05
2023-01-30T06:21:38.217Z,11.60
2023-01-30T06:23:04.203Z,13.02
2023-01-30T06:24:27.573Z,12.90
2023-01-30T06:25:53.603Z,10.90
2023-01-30T06:27:17.103Z,12.45
2023-01-30T06:28:40.527Z,10.63
2023-01-30T06:30:04.427Z,12.70
2023-01-30T06:31:28.094Z,12.10
2023-01-30T06:32:51.315Z,16.95
2023-01-30T06:34:15.053Z,10.48
2023-01-30T06:35:38.557Z,11.88
2023-01-30T06:37:02.060Z,10.50
2023-01-30T06:38:27.095Z,10.52
2023-01-30T06:39:50.610Z,12.38
2023-01-30T06:41:14.159Z,12.95
2023-01-30T06:42:37.601Z,15.73
2023-01-30T06:44:01.063Z,17.73
2023-01-30T06:45:23.457Z,13.63
2023-01-30T06:46:46.830Z,12.68
2023-01-30T06:48:11.032Z,13.07
2023-01-30T06:49:34.411Z,11.23
2023-01-30T06:50:57.908Z,12.48
2023-01-30T06:52:21.312Z,13.88
2023-01-30T06:53:46.213Z,11.68
2023-01-30T06:55:12.017Z,13.40
2023-01-30T06:56:35.455Z,14.93
2023-01-30T06:58:06.769Z,10.90
2023-01-30T06:59:30.245Z,9.88
2023-01-30T07:00:56.665Z,13.15
2023-01-30T07:02:24.025Z,12.68
2023-01-30T07:03:47.503Z,11.10
2023-01-30T07:05:11.777Z,13.43
2023-01-30T07:06:35.320Z,11.95
2023-01-30T07:07:57.845Z,9.05
2023-01-30T07:09:22.625Z,12.55
2023-01-30T07:10:46.619Z,13.00
2023-01-30T07:12:10.157Z,11.05
2023-01-30T07:13:33.542Z,8.75
2023-01-30T07:14:56.968Z,14.18
2023-01-30T07:16:20.489Z,6.93
2023-01-30T07:17:43.946Z,10.80
2023-01-30T07:19:07.325Z,9.20
2023-01-30T07:20:30.255Z,10.70
2023-01-30T07:21:53.692Z,8.13
2023-01-30T07:23:17.881Z,9.77
2023-01-30T07:24:43.657Z,9.10
2023-01-30T07:26:07.840Z,10.55
2023-01-30T07:27:31.242Z,10.77
2023-01-30T07:28:54.676Z,9.05
2023-01-30T07:30:18.615Z,10.45
2023-01-30T07:31:42.064Z,9.50
2023-01-30T07:33:05.723Z,10.38
2023-01-30T07:34:29.454Z,6.68
2023-01-30T07:35:52.843Z,7.85
2023-01-30T07:37:16.662Z,6.75
2023-01-30T07:38:40.096Z,8.90
2023-01-30T07:40:04.347Z,7.72
2023-01-30T07:41:27.732Z,6.60
2023-01-30T07:42:58.484Z,6.75
2023-01-30T07:44:22.116Z,6.57
2023-01-30T07:45:47.112Z,5.82
2023-01-30T07:47:10.685Z,5.10
2023-01-30T07:48:34.111Z,10.52
2023-01-30T07:49:57.519Z,8.27
2023-01-30T07:51:20.871Z,6.30
2023-01-30T07:52:43.267Z,5.43
2023-01-30T07:54:06.698Z,10.82
2023-01-30T07:55:31.550Z,5.85
2023-01-30T07:56:55.043Z,5.00
2023-01-30T07:58:18.479Z,6.85
2023-01-30T07:59:42.862Z,5.43
2023-01-30T08:01:06.802Z,4.40
2023-01-30T08:02:30.339Z,5.30
2023-01-30T08:03:53.769Z,6.43
2023-01-30T08:05:17.354Z,6.13
2023-01-30T08:06:40.880Z,3.53
2023-01-30T08:08:04.443Z,3.97
2023-01-30T08:09:27.863Z,3.80
2023-01-30T08:10:52.687Z,5.15
2023-01-30T08:12:16.104Z,6.38
2023-01-30T08:13:39.468Z,4.90
2023-01-30T08:15:03.005Z,4.53
2023-01-30T08:16:26.508Z,4.70
2023-01-30T08:17:56.256Z,4.90
2023-01-30T08:19:19.897Z,4.97
2023-01-30T08:20:44.609Z,4.47
2023-01-30T08:22:08.035Z,3.58
2023-01-30T08:23:32.992Z,3.70
2023-01-30T08:24:56.440Z,3.60
2023-01-30T08:26:21.312Z,2.83
2023-01-30T08:27:44.755Z,6.35
2023-01-30T08:29:08.145Z,3.90
2023-01-30T08:30:31.971Z,4.63
2023-01-30T08:31:58.800Z,2.97
2023-01-30T08:33:22.558Z,2.83
2023-01-30T08:34:46.133Z,3.47
2023-01-30T08:36:10.381Z,3.38
2023-01-30T08:37:33.745Z,6.90
2023-01-30T08:38:57.130Z,3.50
2023-01-30T08:40:20.977Z,3.85
2023-01-30T08:41:46.001Z,3.55
2023-01-30T08:43:09.808Z,3.17
2023-01-30T08:44:33.224Z,3.63
2023-01-30T08:45:57.126Z,4.97
2023-01-30T08:47:20.519Z,5.60
2023-01-30T08:48:49.973Z,4.28
2023-01-30T08:50:13.789Z,5.95
2023-01-30T08:51:37.224Z,8.50
2023-01-30T08:53:05.561Z,4.63
2023-01-30T08:54:29.032Z,2.72
2023-01-30T08:55:52.947Z,2.78
2023-01-30T08:57:17.838Z,3.78
2023-01-30T08:58:43.731Z,4.22
2023-01-30T09:00:08.996Z,7.35
2023-01-30T09:01:32.485Z,7.15
2023-01-30T09:02:56.067Z,5.15
2023-01-30T09:04:19.456Z,2.28
2023-01-30T09:05:42.893Z,4.97
2023-01-30T09:07:06.414Z,3.70
2023-01-30T09:08:29.941Z,4.43
2023-01-30T09:09:53.591Z,3.13
2023-01-30T09:11:17.005Z,4.93
2023-01-30T09:12:41.863Z,3.25
2023-01-30T09:14:05.301Z,2.63
2023-01-30T09:15:28.848Z,5.10
2023-01-30T09:16:55.603Z,2.80
2023-01-30T09:18:19.293Z,2.42
2023-01-30T09:19:42.686Z,3.97
2023-01-30T09:21:07.329Z,3.17
2023-01-30T09:22:30.769Z,3.83
2023-01-30T09:23:56.575Z,2.83
2023-01-30T09:25:21.006Z,5.85
2023-01-30T09:26:45.460Z,2.85
2023-01-30T09:28:10.324Z,2.75
2023-01-30T09:29:33.714Z,4.07
2023-01-30T09:30:59.180Z,2.60
2023-01-30T09:32:22.694Z,5.30
2023-01-30T09:33:46.190Z,2.83
2023-01-30T09:35:09.712Z,4.85
2023-01-30T09:36:33.147Z,3.53
2023-01-30T09:37:56.514Z,1.80
2023-01-30T09:39:19.931Z,3.00
2023-01-30T09:40:53.485Z,5.38
2023-01-30T09:42:31.506Z,3.63
2023-01-30T09:44:21.308Z,5.50
2023-01-30T09:46:01.020Z,5.78
2023-01-30T09:47:29.715Z,3.67
2023-01-30T09:48:58.869Z,4.30
2023-01-30T09:50:34.568Z,3.22
2023-01-30T09:52:04.618Z,5.40
2023-01-30T09:53:34.821Z,3.50
2023-01-30T09:55:02.380Z,4.18
2023-01-30T09:56:26.083Z,3.42
2023-01-30T09:57:50.557Z,3.83
2023-01-30T09:59:22.770Z,4.40
2023-01-30T10:00:48.209Z,1.92
2023-01-30T10:02:26.990Z,1.70
2023-01-30T10:04:00.946Z,8.10
2023-01-30T10:05:26.584Z,2.80
2023-01-30T10:06:57.681Z,4.47
2023-01-30T10:08:40.336Z,1.55
2023-01-30T10:10:11.211Z,3.88
2023-01-30T10:11:48.200Z,2.58
2023-01-30T10:13:26.892Z,5.88
2023-01-30T10:15:03.454Z,3.45
2023-01-30T10:16:29.875Z,2.95
2023-01-30T10:18:19.741Z,6.47
2023-01-30T10:20:04.801Z,4.13
2023-01-30T10:21:37.767Z,7.90
2023-01-30T10:23:14.315Z,6.88
2023-01-30T10:24:45.355Z,7.78
2023-01-30T10:26:14.288Z,3.67
2023-01-30T10:27:38.498Z,7.72
2023-01-30T10:29:07.611Z,6.63
2023-01-30T10:30:33.017Z,8.63
2023-01-30T10:32:02.129Z,5.28
2023-01-30T10:33:29.640Z,6.55
2023-01-30T10:34:54.551Z,3.90
2023-01-30T10:36:22.266Z,9.77
2023-01-30T10:37:51.677Z,6.22
2023-01-30T10:39:25.243Z,7.18
2023-01-30T10:40:53.539Z,13.32
2023-01-30T10:42:19.775Z,5.25
2023-01-30T10:43:45.315Z,6.40
2023-01-30T10:45:13.459Z,6.78
2023-01-30T10:46:54.584Z,6.70
2023-01-30T10:48:42.496Z,5.82
2023-01-30T10:50:17.329Z,13.45
2023-01-30T10:51:48.498Z,16.83
2023-01-30T10:53:17.051Z,8.38
2023-01-30T10:54:55.354Z,8.23
2023-01-30T10:56:21.807Z,5.00
2023-01-30T10:57:54.802Z,12.02
2023-01-30T10:59:25.171Z,13.07
2023-01-30T11:00:53.811Z,6.78
2023-01-30T11:02:26.283Z,10.35
2023-01-30T11:03:53.069Z,11.48
2023-01-30T11:05:17.811Z,4.60
2023-01-30T11:06:41.604Z,5.05
2023-01-30T11:08:05.517Z,5.75
2023-01-30T11:09:40.760Z,6.47
2023-01-30T11:11:26.654Z,8.52
2023-01-30T11:12:52.380Z,4.22
2023-01-30T11:14:16.081Z,9.23
2023-01-30T11:15:42.714Z,9.38
2023-01-30T11:17:06.242Z,12.68
2023-01-30T11:19:17.827Z,7.45
2023-01-30T11:20:17.358Z,5.53
2023-01-30T11:21:44.532Z,6.15
2023-01-30T11:23:10.042Z,9.95
2023-01-30T11:24:40.335Z,10.45
2023-01-30T11:26:11.254Z,7.03
2023-01-30T11:27:36.422Z,7.95
2023-01-30T11:28:59.937Z,8.98
2023-01-30T11:30:25.824Z,13.90
2023-01-30T11:31:52.320Z,11.90
2023-01-30T11:33:17.814Z,15.65
2023-01-30T11:34:44.611Z,11.35
2023-01-30T11:36:13.649Z,9.00
2023-01-30T11:37:38.279Z,11.40
2023-01-30T11:39:03.695Z,9.98
2023-01-30T11:40:31.088Z,7.38
2023-01-30T11:42:04.591Z,10.02
2023-01-30T11:43:30.293Z,7.32
2023-01-30T11:45:10.785Z,6.25
2023-01-30T11:46:41.719Z,8.15
2023-01-30T11:48:23.459Z,8.70
2023-01-30T11:50:02.619Z,9.70
2023-01-30T11:51:28.041Z,9.73
2023-01-30T11:52:51.944Z,12.05
2023-01-30T11:54:17.851Z,11.07
2023-01-30T11:55:47.129Z,16.52
2023-01-30T11:57:18.539Z,5.60
2023-01-30T11:58:46.179Z,16.15
2023-01-30T12:00:18.128Z,9.40
2023-01-30T12:01:41.913Z,9.95
2023-01-30T12:03:10.743Z,13.43
2023-01-30T12:04:34.639Z,12.35
2023-01-30T12:06:01.152Z,9.75
2023-01-30T12:07:26.420Z,16.23
2023-01-30T12:08:54.794Z,11.15
2023-01-30T12:10:29.947Z,12.45
2023-01-30T12:11:53.764Z,7.03
2023-01-30T12:13:21.754Z,2.45
2023-01-30T12:14:48.606Z,14.43
2023-01-30T12:16:19.020Z,9.38
2023-01-30T12:17:47.665Z,5.32
2023-01-30T12:19:20.293Z,10.40
2023-01-30T12:20:50.384Z,5.60
2023-01-30T12:22:22.167Z,6.50
2023-01-30T12:23:49.776Z,8.50
2023-01-30T12:25:17.460Z,8.93
2023-01-30T12:26:47.058Z,10.15
2023-01-30T12:28:15.523Z,15.27
2023-01-30T12:29:42.501Z,9.25
2023-01-30T12:31:10.003Z,13.90
2023-01-30T12:32:35.300Z,10.98
2023-01-30T12:33:59.127Z,13.68
2023-01-30T12:35:25.613Z,15.18
2023-01-30T12:36:55.895Z,13.13
2023-01-30T12:38:32.226Z,8.57
2023-01-30T12:40:02.461Z,9.45
2023-01-30T12:41:43.492Z,13.55
2023-01-30T12:43:34.284Z,7.07
2023-01-30T12:45:07.944Z,5.80
2023-01-30T12:46:46.137Z,7.75
2023-01-30T12:48:30.232Z,10.00
2023-01-30T12:50:03.681Z,4.72
2023-01-30T12:51:44.693Z,12.40
2023-01-30T12:53:25.142Z,11.45
2023-01-30T12:54:54.672Z,8.90
2023-01-30T12:56:50.415Z,7.35
2023-01-30T12:58:18.041Z,8.00
2023-01-30T12:59:49.377Z,12.13
2023-01-30T13:01:22.337Z,5.65
2023-01-30T13:02:55.903Z,7.43
2023-01-30T13:04:25.973Z,7.32
2023-01-30T13:06:06.068Z,8.20
2023-01-30T13:07:34.021Z,5.32
2023-01-30T13:09:09.343Z,6.45
2023-01-30T13:10:36.200Z,6.25
2023-01-30T13:12:03.515Z,7.82
2023-01-30T13:13:30.496Z,10.70
2023-01-30T13:14:59.106Z,6.75
2023-01-30T13:16:28.586Z,11.90
2023-01-30T13:18:02.166Z,6.30
2023-01-30T13:19:40.481Z,4.68
2023-01-30T13:21:09.541Z,8.13
2023-01-30T13:22:39.216Z,8.88
2023-01-30T13:24:15.727Z,7.70
2023-01-30T13:25:46.016Z,5.35
2023-01-30T13:27:14.884Z,8.20
2023-01-30T13:28:40.978Z,8.60
2023-01-30T13:30:07.527Z,10.35
2023-01-30T13:31:33.815Z,8.52
2023-01-30T13:32:59.744Z,5.80
2023-01-30T13:34:29.676Z,6.00
2023-01-30T13:35:55.557Z,3.85
2023-01-30T13:37:20.102Z,9.90
2023-01-30T13:38:49.370Z,3.95
2023-01-30T13:40:18.426Z,10.90
2023-01-30T13:41:45.363Z,4.88
2023-01-30T13:43:17.185Z,6.45
2023-01-30T13:44:43.296Z,4.68
2023-01-30T13:46:11.099Z,8.80
2023-01-30T13:47:44.095Z,7.53
2023-01-30T13:49:13.877Z,9.27
2023-01-30T13:50:51.008Z,7.32
2023-01-30T13:52:22.136Z,7.70
2023-01-30T13:53:51.666Z,10.05
2023-01-30T13:55:26.800Z,8.88
2023-01-30T13:56:55.154Z,4.60
2023-01-30T13:58:33.759Z,5.65
2023-01-30T14:00:29.766Z,7.22
2023-01-30T14:02:26.739Z,10.05
2023-01-30T14:03:50.690Z,9.00
2023-01-30T14:05:14.246Z,7.72
2023-01-30T14:06:39.117Z,13.43
2023-01-30T14:08:02.623Z,6.25
2023-01-30T14:09:28.800Z,6.45
2023-01-30T14:10:55.598Z,9.80
2023-01-30T14:12:21.134Z,13.30
2023-01-30T14:13:52.898Z,14.80
2023-01-30T14:15:31.703Z,8.18
2023-01-30T14:16:56.604Z,13.30
2023-01-30T14:18:23.992Z,10.45
2023-01-30T14:20:00.286Z,11.38
2023-01-30T14:21:25.100Z,8.80
2023-01-30T14:22:53.472Z,5.32
2023-01-30T14:24:24.986Z,5.55
2023-01-30T14:25:50.587Z,3.70
2023-01-30T14:27:31.953Z,4.63
2023-01-30T14:28:55.772Z,4.65
2023-01-30T14:30:38.951Z,7.20
2023-01-30T14:32:02.453Z,1.85
2023-01-30T14:33:38.070Z,1.58
2023-01-30T14:35:25.823Z,0.30
2023-01-30T14:36:49.659Z,1.98
2023-01-30T14:38:14.309Z,3.45
2023-01-30T14:39:42.138Z,2.25
2023-01-30T14:41:26.067Z,2.33
2023-01-30T14:43:43.467Z,1.75
2023-01-30T14:45:14.949Z,1.10
2023-01-30T14:46:54.827Z,0.40
2023-01-30T14:48:30.155Z,0.10
2023-01-30T14:49:53.908Z,3.83
2023-01-30T14:51:24.115Z,3.08
2023-01-30T14:52:49.499Z,0.88
2023-01-30T14:54:27.662Z,2.03
2023-01-30T14:56:02.091Z,5.03
2023-01-30T14:57:32.554Z,1.00
2023-01-30T14:59:02.162Z,2.83
2023-01-30T15:00:29.242Z,3.92
2023-01-30T15:02:07.959Z,5.15
2023-01-30T15:03:33.328Z,6.57
2023-01-30T15:05:04.133Z,3.78
2023-01-30T15:06:28.969Z,3.42
2023-01-30T15:07:54.931Z,6.47
2023-01-30T15:09:19.325Z,2.28
2023-01-30T15:11:05.030Z,5.13
2023-01-30T15:12:54.029Z,8.27
2023-01-30T15:14:22.257Z,3.13
2023-01-30T15:15:52.904Z,9.15
2023-01-30T15:17:23.466Z,4.53
2023-01-30T15:19:10.528Z,4.88
2023-01-30T15:20:43.343Z,2.83
2023-01-30T15:22:16.332Z,5.60
2023-01-30T15:24:00.663Z,4.63
2023-01-30T15:25:46.376Z,9.95
2023-01-30T15:27:16.008Z,5.10
2023-01-30T15:28:47.502Z,4.97
2023-01-30T15:30:22.466Z,5.68
2023-01-30T15:31:55.788Z,4.80
2023-01-30T15:33:30.835Z,7.07
2023-01-30T15:34:57.939Z,8.80
2023-01-30T15:36:25.691Z,2.00
2023-01-30T15:37:50.605Z,2.53
2023-01-30T15:39:20.829Z,4.55
2023-01-30T15:40:44.308Z,5.65
2023-01-30T15:42:09.147Z,8.25
2023-01-30T15:44:04.948Z,4.03
2023-01-30T15:45:40.910Z,5.13
2023-01-30T15:47:17.408Z,4.38
2023-01-30T15:48:53.800Z,3.58
2023-01-30T15:50:17.941Z,4.80
2023-01-30T15:51:41.615Z,4.38
2023-01-30T15:53:05.072Z,5.78
2023-01-30T15:54:28.617Z,5.10
2023-01-30T15:55:52.583Z,3.35
2023-01-30T15:57:21.942Z,4.07
2023-01-30T15:58:46.284Z,9.90
2023-01-30T16:00:27.382Z,6.65
2023-01-30T16:02:01.006Z,11.13
2023-01-30T16:03:26.609Z,5.35
2023-01-30T16:04:50.655Z,5.30
2023-01-30T16:06:25.606Z,6.68
2023-01-30T16:07:50.238Z,3.72
2023-01-30T16:09:21.712Z,7.35
2023-01-30T16:10:46.435Z,5.10
2023-01-30T16:12:25.306Z,8.10
2023-01-30T16:13:48.756Z,6.88
2023-01-30T16:15:19.849Z,7.45
2023-01-30T16:16:47.074Z,4.78
2023-01-30T16:18:19.143Z,6.50
2023-01-30T16:19:42.743Z,5.28
2023-01-30T16:21:07.902Z,6.70
2023-01-30T16:22:34.896Z,3.60
2023-01-30T16:24:04.218Z,10.70
2023-01-30T16:25:29.791Z,10.65
2023-01-30T16:26:56.289Z,13.77
2023-01-30T16:28:22.006Z,6.75
2023-01-30T16:29:50.610Z,8.68
2023-01-30T16:31:17.580Z,7.65
2023-01-30T16:32:41.393Z,10.07
2023-01-30T16:34:06.597Z,4.07
2023-01-30T16:35:34.075Z,8.55
2023-01-30T16:37:00.855Z,10.95
2023-01-30T16:38:37.261Z,3.88
2023-01-30T16:40:06.233Z,10.55
2023-01-30T16:41:30.966Z,9.40
2023-01-30T16:42:58.397Z,7.35
2023-01-30T16:44:23.315Z,11.05
2023-01-30T16:46:22.404Z,14.85
2023-01-30T16:47:45.987Z,8.50
2023-01-30T16:49:19.399Z,6.97
2023-01-30T16:50:42.905Z,5.95
2023-01-30T16:52:12.746Z,5.00
2023-01-30T16:53:36.182Z,8.70
2023-01-30T16:55:01.568Z,8.77
2023-01-30T16:56:24.142Z,8.88
2023-01-30T16:57:53.079Z,5.55
2023-01-30T16:59:21.338Z,15.20
2023-01-30T17:00:45.029Z,10.38
2023-01-30T17:02:08.753Z,9.63
2023-01-30T17:03:35.802Z,10.43
2023-01-30T17:05:14.733Z,9.05
2023-01-30T17:06:39.943Z,7.90
2023-01-30T17:08:03.459Z,12.43
2023-01-30T17:09:42.941Z,6.22
2023-01-30T17:11:06.795Z,8.90
2023-01-30T17:12:48.375Z,11.95
2023-01-30T17:14:23.301Z,7.45
2023-01-30T17:15:46.736Z,8.93
2023-01-30T17:17:10.573Z,7.85
2023-01-30T17:18:33.982Z,8.45
2023-01-30T17:19:59.620Z,8.40
2023-01-30T17:21:26.462Z,6.97
2023-01-30T17:22:52.438Z,10.43
2023-01-30T17:24:17.645Z,9.07
2023-01-30T17:25:44.246Z,14.23
2023-01-30T17:27:08.673Z,7.65
2023-01-30T17:28:32.086Z,8.35
2023-01-30T17:29:55.564Z,11.32
2023-01-30T17:31:20.298Z,8.00
2023-01-30T17:32:43.820Z,8.10
2023-01-30T17:34:07.288Z,5.20
2023-01-30T17:35:30.841Z,11.07
2023-01-30T17:36:56.323Z,14.35
2023-01-30T17:38:19.960Z,5.93
2023-01-30T17:39:43.416Z,8.43
2023-01-30T17:41:09.851Z,11.80
2023-01-30T17:42:33.303Z,12.15
2023-01-30T17:43:56.734Z,5.45
2023-01-30T17:45:20.674Z,7.00
2023-01-30T17:46:46.133Z,8.25
2023-01-30T17:48:10.432Z,7.75
2023-01-30T17:49:34.342Z,17.20
2023-01-30T17:50:57.859Z,10.00
2023-01-30T17:52:23.055Z,5.75
2023-01-30T17:53:46.606Z,7.05
2023-01-30T17:55:13.187Z,12.27
2023-01-30T17:56:38.469Z,3.75
2023-01-30T17:58:02.193Z,11.60
2023-01-30T17:59:25.730Z,11.20
2023-01-30T18:00:49.166Z,8.90
2023-01-30T18:02:12.634Z,6.10
2023-01-30T18:03:36.220Z,13.23
2023-01-30T18:04:59.775Z,8.77
2023-01-30T18:06:23.293Z,9.75
2023-01-30T18:07:48.179Z,15.27
2023-01-30T18:09:14.445Z,10.80
2023-01-30T18:10:37.899Z,8.85
2023-01-30T18:12:03.931Z,11.20
2023-01-30T18:13:27.532Z,11.90
2023-01-30T18:14:51.069Z,13.88
2023-01-30T18:16:18.547Z,16.58
2023-01-30T18:17:46.814Z,13.82
2023-01-30T18:19:13.211Z,11.95
2023-01-30T18:20:36.680Z,8.77
2023-01-30T18:22:00.237Z,10.23
2023-01-30T18:23:25.096Z,12.48
2023-01-30T18:24:48.559Z,16.45
2023-01-30T18:26:13.435Z,18.20
2023-01-30T18:27:37.036Z,12.70
2023-01-30T18:29:00.616Z,12.85
2023-01-30T18:30:24.993Z,15.07
2023-01-30T18:31:48.624Z,6.35
2023-01-30T18:33:12.102Z,10.95
2023-01-30T18:34:37.608Z,9.73
2023-01-30T18:36:04.053Z,9.18
2023-01-30T18:37:27.509Z,15.52
2023-01-30T18:38:53.587Z,20.95
2023-01-30T18:40:17.972Z,9.27
2023-01-30T18:41:41.901Z,9.25
2023-01-30T18:43:05.333Z,9.93
2023-01-30T18:44:28.829Z,10.15
2023-01-30T18:45:55.458Z,15.30
2023-01-30T18:47:18.828Z,8.80
2023-01-30T18:48:42.483Z,15.52
2023-01-30T18:50:06.563Z,15.48
2023-01-30T18:51:33.524Z,13.82
2023-01-30T18:52:58.547Z,11.93
2023-01-30T18:54:25.166Z,14.18
2023-01-30T18:55:51.245Z,12.07
2023-01-30T18:57:14.674Z,10.43
2023-01-30T18:58:38.367Z,19.85
2023-01-30T19:00:01.913Z,14.57
2023-01-30T19:01:27.307Z,13.57
2023-01-30T19:02:54.129Z,10.93